Scroll down
FLIGHT INFORMATION
Continental Airlines

COA1972

At Arrival Gate

KIAD
 KEWR
DATE: 2020-03-06
GATE: C23
GATE DEPARTURE: 17:20
TAKEOFF: 17:33
DATE: 2020-03-06
GATE:  -
LANDING: 18:18
GATE ARRIVAL: 18:20
FLIGHT DATA
Crew: 
Speed: 
369 kts
Altitude: 
17,037 ft
Stage Length: 
184.4 nm
Block Time: 
0.9 hrs
Flight Time: 
0.7 hrs
Fuel Used: 
4,553 lb
Cleared Route: 
TRACK DATA
50,000 ft 1,000 kts
AIRCRAFT INFO AND CUMULATIVE STATS
Aircraft Type: 
B737BW
Registration: 
SELCAL: 
JPFG
MSN/LN: 
28950 / 376
Operator: 
Total Flights: 
10
Total Block Time: 
18.7 hrs
Total Flight Time: 
16 hrs
Total Fuel Time: 
85,089 lb
DATALINK LOG | Newest first | Current as of: 2021-04-20 22:34:57
LABEL SEQUENCE CONTENT Dn/Up
QD214818:20 8.3▼ Dn
QC180918:18▼ Dn
QB344617:33▼ Dn
QA215217:20 13▼ Dn
2U1405KIAD 061652Z 34012G17KT 10SM FEW040 BKN070 BKN130 BKN220 09/M01 A2983 RMK AO2 SLP101 T00891006▲ Up
2U1405KEWR 061651Z 01012KT 10SM -RA BKN028 OVC075 07/02 A2986 RMK AO2 RAB50 SLP110 P0000 T00670017▲ Up
2S1405KIAD KEWR▼ Dn
A30808CLEARED TO KEWR VIA KIAD KEWR COA1972 N14735 . SQUAWK 7073.▲ Up
B30725KIAD KEWR COA1972 N14735 ▼ Dn
Q00404[LINK ACK]▲ Up
Q00451[LINK TEST]▼ Dn


AIRCRAFT HISTORY
FLIGHT DATE FLIGHT NO. ORIGIN DESTINATION CLEARED ROUTE BLOCK TIME FLIGHT TIME FUEL USED PILOT
2020-10-13COA2201KDCA KPHL KDCA DQO KPHL0.7 hrs0.5 hrs3,647 lbJames W.
2020-07-14COA2201CYYZ KDCA CYYZ MOBEL BIRLI VIDRA DUSOM RIGUS MIKKY PSB SHILO SKILS BAL EYESS BRUNC FELTY HITEK CAVDI KATRN RW011.2 hrs1 hrs6,222 lbRoberto Stopnicki
2020-04-21COA262KBOS CYYZ 1.5 hrs1.4 hrs7,486 lbCharles Harris
2020-04-11COA421KEWR KBOS 1 hrs0.8 hrs4,326 lbKyle Weber
2020-03-06COA1972KIAD KEWR 0.9 hrs0.7 hrs4,553 lbKyle Weber
2020-02-29COA783KLAX KIAD 4.7 hrs4.4 hrs20,770 lbKyle Weber
2020-02-05COA208KIAD KLAX 5.7 hrs5.3 hrs26,596 lbKyle Weber
2020-02-01COA2201KORF KIAD 0.9 hrs0.6 hrs3,923 lbAaron Buchanan
2020-01-30COA994KIAD KORF 1.2 hrs0.7 hrs3,904 lbKyle Weber
2020-01-26COA360KRDU KIAD 0.9 hrs0.7 hrs3,661 lbKyle Weber